Time;durP1;ratioP1;P1;durP2;ratioP2;P2;SDS_P1;SDS_P2;PMS_P1;PMS_P2;Temp;Humidity;BMP_temperature;BMP_pressure;BME280_temperature;BME280_humidity;BME280_pressure;Samples;Min_cycle;Max_cycle;Signal;HPM_P1;HPM_P2
2023/07/20 00:01:51;;;;;;;3.72;3.10;;;17.60;99.90;;;;;;5018540;28;20629;-74
2023/07/20 00:04:18;;;;;;;4.88;3.92;;;17.40;99.90;;;;;;5027757;28;20201;-74
2023/07/20 00:06:45;;;;;;;4.20;3.25;;;17.50;99.90;;;;;;5028381;28;20228;-73
2023/07/20 00:09:12;;;;;;;5.03;3.03;;;17.50;99.90;;;;;;5028078;28;20506;-73
2023/07/20 00:11:39;;;;;;;3.37;2.60;;;17.60;99.90;;;;;;5028562;28;20604;-74
2023/07/20 00:14:06;;;;;;;4.03;3.08;;;17.60;99.90;;;;;;5025257;28;20211;-74
2023/07/20 00:16:33;;;;;;;5.05;3.17;;;17.60;99.90;;;;;;5009234;28;20210;-74
2023/07/20 00:19:00;;;;;;;3.45;3.15;;;17.50;99.90;;;;;;5024123;28;20662;-73
2023/07/20 00:21:27;;;;;;;3.30;2.95;;;17.60;99.90;;;;;;5021251;28;20198;-74
2023/07/20 00:23:54;;;;;;;5.28;3.40;;;17.60;99.90;;;;;;5024439;28;20206;-74
2023/07/20 00:26:21;;;;;;;4.20;3.40;;;17.60;99.90;;;;;;5027989;28;20205;-75
2023/07/20 00:28:50;;;;;;;4.95;2.92;;;17.60;99.90;;;;;;5025139;28;20301;-73
2023/07/20 00:31:17;;;;;;;3.37;2.83;;;17.60;99.90;;;;;;5017280;28;20264;-74
2023/07/20 00:33:44;;;;;;;3.77;2.50;;;17.40;99.90;;;;;;5019995;28;20766;-73
2023/07/20 00:36:11;;;;;;;3.00;2.17;;;17.40;99.90;;;;;;5028232;28;20655;-73
2023/07/20 00:38:38;;;;;;;2.60;2.33;;;17.40;99.90;;;;;;5024037;28;20267;-74
2023/07/20 00:41:05;;;;;;;2.33;2.13;;;17.40;99.90;;;;;;5018875;28;20541;-74
2023/07/20 00:43:31;;;;;;;2.60;2.07;;;17.30;99.90;;;;;;5015465;28;20303;-74
2023/07/20 00:45:59;;;;;;;2.33;1.97;;;17.30;99.90;;;;;;5012971;28;20437;-74
2023/07/20 00:48:26;;;;;;;3.33;2.10;;;17.30;99.90;;;;;;5021433;28;20237;-73
2023/07/20 00:50:53;;;;;;;2.73;2.53;;;17.30;99.90;;;;;;5027969;28;20201;-73
2023/07/20 00:53:20;;;;;;;2.97;2.47;;;17.20;99.90;;;;;;5017806;28;20218;-73
2023/07/20 00:55:47;;;;;;;2.73;2.50;;;17.20;99.90;;;;;;5018751;28;20199;-73
2023/07/20 00:58:14;;;;;;;3.47;2.70;;;17.20;99.90;;;;;;5007559;28;20284;-75
2023/07/20 01:00:41;;;;;;;3.47;3.10;;;17.20;99.90;;;;;;5015527;28;20206;-73
2023/07/20 01:03:07;;;;;;;3.60;2.57;;;17.20;99.90;;;;;;5027611;28;20210;-73
2023/07/20 01:05:56;;;;;;;4.03;2.60;;;17.20;99.90;;;;;;5032404;28;20198;-74
2023/07/20 01:08:36;;;;;;;3.77;2.73;;;17.20;99.90;;;;;;5031844;28;20212;-74
2023/07/20 01:11:22;;;;;;;3.00;2.27;;;17.20;99.90;;;;;;5030655;28;20268;-74
2023/07/20 01:13:50;;;;;;;3.47;2.50;;;17.20;99.90;;;;;;5021701;28;20589;-74
2023/07/20 01:16:17;;;;;;;2.90;2.33;;;17.10;99.90;;;;;;5013414;28;20628;-75
2023/07/20 01:18:44;;;;;;;3.57;2.23;;;17.10;99.90;;;;;;5028496;28;20209;-73
2023/07/20 01:21:18;;;;;;;2.50;2.10;;;17.10;99.90;;;;;;5013195;28;20206;-73
2023/07/20 01:24:18;;;;;;;2.73;2.27;;;17.10;99.90;;;;;;5031804;28;20236;-74
2023/07/20 01:27:19;;;;;;;2.13;1.80;;;17.00;99.90;;;;;;5030327;28;20214;-73
2023/07/20 01:30:19;;;;;;;2.33;1.67;;;17.00;99.90;;;;;;5022319;28;20199;-73
2023/07/20 01:32:47;;;;;;;1.70;1.60;;;17.00;99.90;;;;;;5005627;28;20225;-73
2023/07/20 01:35:16;;;;;;;1.73;1.63;;;16.90;99.90;;;;;;5015831;28;20245;-72
2023/07/20 01:37:45;;;;;;;2.20;1.80;;;16.90;99.90;;;;;;5029720;28;20271;-74
2023/07/20 01:40:16;;;;;;;1.93;1.73;;;16.90;99.90;;;;;;5028254;28;20281;-74
2023/07/20 01:42:49;;;;;;;1.90;1.80;;;16.80;99.90;;;;;;5011742;28;20220;-72
2023/07/20 01:45:16;;;;;;;1.70;1.53;;;16.80;99.90;;;;;;5027063;28;20210;-74
2023/07/20 01:47:43;;;;;;;1.77;1.67;;;16.80;99.90;;;;;;5030954;28;20242;-75
2023/07/20 01:50:10;;;;;;;2.73;2.23;;;16.80;99.90;;;;;;5031075;28;20205;-74
2023/07/20 01:52:37;;;;;;;2.23;1.60;;;16.70;99.90;;;;;;5030951;28;20271;-73
2023/07/20 01:55:04;;;;;;;1.70;1.60;;;16.60;99.90;;;;;;5025532;28;20202;-75
2023/07/20 01:57:31;;;;;;;2.73;1.57;;;16.60;99.90;;;;;;5010945;28;20273;-74
2023/07/20 01:59:58;;;;;;;3.70;1.70;;;16.50;99.90;;;;;;5021514;28;20696;-75
2023/07/20 02:02:28;;;;;;;1.73;1.63;;;16.50;99.90;;;;;;5026420;28;20198;-73
2023/07/20 02:04:54;;;;;;;1.90;1.60;;;16.50;99.90;;;;;;5030553;28;20225;-73
2023/07/20 02:07:21;;;;;;;2.63;1.70;;;16.50;99.90;;;;;;5020747;28;20294;-74
2023/07/20 02:09:48;;;;;;;1.77;1.67;;;16.50;99.90;;;;;;5026781;28;20214;-73
2023/07/20 02:12:15;;;;;;;2.10;1.73;;;16.50;99.90;;;;;;5021349;28;20230;-74
2023/07/20 02:14:42;;;;;;;3.00;1.83;;;16.50;99.90;;;;;;5025832;28;20245;-74
2023/07/20 02:17:10;;;;;;;1.97;1.77;;;16.40;99.90;;;;;;5025381;28;20198;-72
2023/07/20 02:19:38;;;;;;;2.07;1.63;;;16.40;99.90;;;;;;5030265;28;20201;-75
2023/07/20 02:22:06;;;;;;;1.87;1.67;;;16.30;99.90;;;;;;5027306;28;20202;-73
2023/07/20 02:24:33;;;;;;;2.13;1.73;;;16.30;99.90;;;;;;5017286;28;20665;-74
2023/07/20 02:27:00;;;;;;;1.87;1.50;;;16.20;99.90;;;;;;5021522;28;20265;-73
2023/07/20 02:29:27;;;;;;;1.50;1.40;;;16.10;99.90;;;;;;5012901;28;20209;-74
2023/07/20 02:31:54;;;;;;;4.30;1.70;;;16.00;99.90;;;;;;5028209;28;20555;-72
2023/07/20 02:34:21;;;;;;;1.90;1.70;;;16.00;99.90;;;;;;5016723;28;20244;-74
2023/07/20 02:36:48;;;;;;;2.17;1.80;;;16.00;99.90;;;;;;5028777;28;21638;-73
2023/07/20 02:39:14;;;;;;;1.93;1.57;;;15.90;99.90;;;;;;5025584;28;20301;-74
2023/07/20 02:41:41;;;;;;;2.60;1.73;;;15.90;99.90;;;;;;5010227;28;20221;-73
2023/07/20 02:44:08;;;;;;;1.87;1.50;;;15.80;99.90;;;;;;5019538;28;20212;-75
2023/07/20 02:46:35;;;;;;;1.60;1.50;;;15.80;99.90;;;;;;5018572;28;20234;-73
2023/07/20 02:49:02;;;;;;;2.27;1.70;;;15.70;99.90;;;;;;5028707;28;20232;-73
2023/07/20 02:51:28;;;;;;;2.03;1.80;;;15.70;99.90;;;;;;5028699;28;20202;-72
2023/07/20 02:53:55;;;;;;;1.70;1.60;;;15.70;99.90;;;;;;5029949;28;20719;-74
2023/07/20 02:56:22;;;;;;;1.90;1.80;;;15.60;99.90;;;;;;5020484;28;20203;-73
2023/07/20 02:58:50;;;;;;;1.93;1.70;;;15.60;99.90;;;;;;5013464;28;20203;-74
2023/07/20 03:01:17;;;;;;;2.77;2.23;;;15.50;99.90;;;;;;5029654;28;20218;-73
2023/07/20 03:03:47;;;;;;;2.50;1.90;;;15.60;99.90;;;;;;5029568;28;20228;-73
2023/07/20 03:06:15;;;;;;;2.53;2.10;;;15.40;99.90;;;;;;5026369;28;20221;-73
2023/07/20 03:08:47;;;;;;;2.60;1.90;;;15.50;99.90;;;;;;5016175;28;20210;-73
2023/07/20 03:11:18;;;;;;;2.17;1.93;;;15.40;99.90;;;;;;5028738;28;20221;-74
2023/07/20 03:13:45;;;;;;;2.00;1.80;;;15.40;99.90;;;;;;5017427;28;20233;-74
2023/07/20 03:16:15;;;;;;;3.70;1.90;;;15.30;99.90;;;;;;5023788;28;20214;-74
2023/07/20 03:18:42;;;;;;;2.33;2.00;;;15.40;99.90;;;;;;5016913;28;20242;-74
2023/07/20 03:21:13;;;;;;;2.27;2.00;;;15.30;99.90;;;;;;5025782;28;20215;-74
2023/07/20 03:23:40;;;;;;;1.90;1.80;;;15.20;99.90;;;;;;5029525;28;20209;-73
2023/07/20 03:26:10;;;;;;;2.63;1.73;;;15.30;99.90;;;;;;5028766;28;20263;-73
2023/07/20 03:28:37;;;;;;;2.67;2.30;;;15.20;99.90;;;;;;5015359;28;20205;-73
2023/07/20 03:31:04;;;;;;;1.93;1.83;;;15.10;99.90;;;;;;5022858;28;20558;-74
2023/07/20 03:33:33;;;;;;;2.30;2.10;;;15.10;99.90;;;;;;5022156;28;20226;-74
2023/07/20 03:36:00;;;;;;;2.83;2.20;;;15.10;99.90;;;;;;5023294;28;20210;-75
2023/07/20 03:38:27;;;;;;;3.73;2.43;;;15.10;99.90;;;;;;5022092;28;20202;-74
2023/07/20 03:40:57;;;;;;;2.57;2.30;;;15.00;99.90;;;;;;5024686;28;20206;-73
2023/07/20 03:43:25;;;;;;;2.77;2.23;;;14.90;99.90;;;;;;5006561;28;20265;-73
2023/07/20 03:45:53;;;;;;;2.90;2.60;;;15.00;99.90;;;;;;5012373;28;20257;-75
2023/07/20 03:48:21;;;;;;;4.07;2.47;;;14.90;99.90;;;;;;5028519;28;20819;-74
2023/07/20 03:50:49;;;;;;;2.70;2.50;;;14.90;99.90;;;;;;5028733;28;20260;-74
2023/07/20 03:53:16;;;;;;;2.40;2.13;;;14.90;99.90;;;;;;5020610;28;20303;-75
2023/07/20 03:55:48;;;;;;;2.50;2.30;;;14.80;99.90;;;;;;5028777;28;20202;-74
2023/07/20 03:58:15;;;;;;;2.90;2.60;;;14.80;99.90;;;;;;5009465;28;20289;-74
2023/07/20 04:00:50;;;;;;;3.57;2.60;;;14.80;99.90;;;;;;5027021;28;20201;-73
2023/07/20 04:03:18;;;;;;;2.97;2.53;;;14.80;99.90;;;;;;5028055;28;20830;-74
2023/07/20 04:05:45;;;;;;;2.80;2.50;;;14.80;99.90;;;;;;5028140;28;20301;-75
2023/07/20 04:08:12;;;;;;;3.10;2.57;;;14.70;99.90;;;;;;5015301;28;20210;-74
2023/07/20 04:10:42;;;;;;;2.77;2.47;;;14.80;99.90;;;;;;5027946;28;20202;-75
2023/07/20 04:13:09;;;;;;;3.10;2.60;;;14.70;99.90;;;;;;5004150;28;20373;-74
2023/07/20 04:15:36;;;;;;;3.10;2.60;;;14.70;99.90;;;;;;5017757;28;20194;-74
2023/07/20 04:18:03;;;;;;;3.07;2.53;;;14.70;99.90;;;;;;5021404;28;20205;-73
2023/07/20 04:20:30;;;;;;;3.60;3.10;;;14.70;99.90;;;;;;5028417;28;20289;-73
2023/07/20 04:22:56;;;;;;;4.10;2.60;;;14.70;99.90;;;;;;5023564;28;20696;-73
2023/07/20 04:25:23;;;;;;;4.23;2.73;;;14.70;99.90;;;;;;5028256;28;20601;-74
2023/07/20 04:27:51;;;;;;;3.00;2.60;;;14.70;99.90;;;;;;5023583;28;20227;-74
2023/07/20 04:30:22;;;;;;;3.20;2.90;;;14.70;99.90;;;;;;5015012;28;20199;-75
2023/07/20 04:32:49;;;;;;;4.27;3.07;;;14.60;99.90;;;;;;5021812;28;20230;-74
2023/07/20 04:35:38;;;;;;;3.33;2.90;;;14.70;99.90;;;;;;5027178;28;20712;-73
2023/07/20 04:38:05;;;;;;;3.03;2.60;;;14.70;99.90;;;;;;5013246;28;20240;-73
2023/07/20 04:40:31;;;;;;;5.00;2.60;;;14.70;99.90;;;;;;5027622;28;20213;-74
2023/07/20 04:42:58;;;;;;;2.90;2.60;;;14.70;99.90;;;;;;5014926;28;20666;-73
2023/07/20 04:45:25;;;;;;;2.90;2.37;;;14.70;99.90;;;;;;5018906;28;20202;-75
2023/07/20 04:47:52;;;;;;;3.07;2.60;;;14.70;99.90;;;;;;5025301;28;20257;-73
2023/07/20 04:50:20;;;;;;;3.50;3.00;;;14.80;99.90;;;;;;5027864;28;20660;-73
2023/07/20 04:52:48;;;;;;;2.83;2.43;;;14.80;99.90;;;;;;5027977;28;20734;-73
2023/07/20 04:55:15;;;;;;;2.60;2.40;;;14.80;99.90;;;;;;5026901;28;20198;-74
2023/07/20 04:57:41;;;;;;;3.50;3.10;;;14.80;99.90;;;;;;5009681;28;20629;-75
2023/07/20 05:00:11;;;;;;;4.67;2.70;;;14.90;99.90;;;;;;5009533;28;20210;-74
2023/07/20 05:02:38;;;;;;;3.30;2.83;;;14.90;99.90;;;;;;5015428;28;20203;-74
2023/07/20 05:05:05;;;;;;;4.67;2.70;;;14.90;99.90;;;;;;4987631;28;20208;-72
2023/07/20 05:07:32;;;;;;;3.10;2.70;;;15.00;99.90;;;;;;5008091;28;20198;-73
2023/07/20 05:09:59;;;;;;;3.83;2.93;;;15.00;99.90;;;;;;5011120;28;20638;-72
2023/07/20 05:12:26;;;;;;;3.97;2.70;;;15.10;99.90;;;;;;5012471;28;20285;-73
2023/07/20 05:14:52;;;;;;;2.73;2.53;;;15.10;99.90;;;;;;5006262;28;20296;-73
2023/07/20 05:17:19;;;;;;;3.17;2.70;;;15.20;99.90;;;;;;5010320;28;20200;-74
2023/07/20 05:19:46;;;;;;;4.10;2.53;;;15.10;99.90;;;;;;5016688;28;20770;-73
2023/07/20 05:22:16;;;;;;;3.40;2.80;;;15.20;99.90;;;;;;5006422;28;20638;-73
2023/07/20 05:24:43;;;;;;;3.50;2.60;;;15.20;99.90;;;;;;5010045;28;20215;-73
2023/07/20 05:27:10;;;;;;;3.63;2.57;;;15.20;99.90;;;;;;5012714;28;20254;-73
2023/07/20 05:29:38;;;;;;;4.07;2.60;;;15.30;99.90;;;;;;5010156;28;20205;-73
2023/07/20 05:32:06;;;;;;;3.67;1.90;;;15.40;99.90;;;;;;5013180;28;20257;-74
2023/07/20 05:34:33;;;;;;;4.07;2.60;;;15.40;99.90;;;;;;5010437;28;20229;-73
2023/07/20 05:37:00;;;;;;;4.37;2.00;;;15.50;99.90;;;;;;5011887;28;20261;-73
2023/07/20 05:39:34;;;;;;;2.47;2.10;;;15.50;99.90;;;;;;5018092;23;20246;-84
2023/07/20 05:42:29;;;;;;;4.40;2.37;;;15.60;99.90;;;;;;4979304;28;20230;-87
2023/07/20 05:45:22;;;;;;;4.90;2.10;;;15.90;99.90;;;;;;4916275;29;21612;-87
2023/07/20 05:47:53;;;;;;;2.53;1.52;;;17.20;99.90;;;;;;4916180;29;20332;-92
2023/07/20 05:50:20;;;;;;;1.75;1.27;;;19.00;99.90;;;;;;4966234;28;20217;-87
2023/07/20 05:52:52;;;;;;;1.20;1.10;;;19.90;99.90;;;;;;4981252;28;20222;-89
2023/07/20 05:55:20;;;;;;;0.90;0.90;;;21.20;99.90;;;;;;4978969;28;20315;-88
2023/07/20 05:57:49;;;;;;;1.20;1.10;;;22.20;99.90;;;;;;5000910;28;20278;-91
2023/07/20 06:00:26;;;;;;;2.38;1.10;;;23.00;99.90;;;;;;4993010;28;20245;-92
2023/07/20 06:02:54;;;;;;;0.90;0.90;;;;;;;;;;5000078;28;20206;-88
2023/07/20 06:05:36;;;;;;;0.98;0.85;;;24.70;99.90;;;;;;5002662;28;20277;-87
2023/07/20 06:08:05;;;;;;;1.92;0.88;;;25.60;99.90;;;;;;4999483;28;20213;-91
2023/07/20 06:10:37;;;;;;;1.05;0.90;;;26.30;99.90;;;;;;4996817;28;20254;-91
2023/07/20 06:13:05;;;;;;;1.85;0.95;;;26.80;99.90;;;;;;5000805;28;20202;-86
2023/07/20 06:15:38;;;;;;;1.30;0.90;;;27.20;99.90;;;;;;5019512;28;20690;-86
2023/07/20 06:18:05;;;;;;;2.00;1.00;;;27.50;99.90;;;;;;5010534;28;20199;-84
2023/07/20 06:20:32;;;;;;;1.20;0.73;;;27.70;99.90;;;;;;4999731;28;20234;-86
2023/07/20 06:22:59;;;;;;;1.38;0.80;;;28.30;99.90;;;;;;4997841;28;20230;-88
2023/07/20 06:25:26;;;;;;;1.33;0.90;;;28.60;99.90;;;;;;4996793;28;20914;-84
2023/07/20 06:27:55;;;;;;;0.70;0.60;;;28.90;99.90;;;;;;4997610;28;20218;-86
2023/07/20 06:30:25;;;;;;;1.63;0.80;;;29.10;99.90;;;;;;4993934;28;20507;-89
2023/07/20 06:32:53;;;;;;;1.15;0.70;;;29.30;99.90;;;;;;4987673;28;20292;-87
2023/07/20 06:35:21;;;;;;;1.25;0.73;;;29.40;99.90;;;;;;4999050;28;20238;-84
2023/07/20 06:37:48;;;;;;;1.35;0.75;;;29.60;99.90;;;;;;4997250;28;20199;-85
2023/07/20 06:40:20;;;;;;;1.20;0.73;;;29.80;99.90;;;;;;5001740;28;20238;-86
2023/07/20 06:42:51;;;;;;;0.85;0.70;;;30.10;99.90;;;;;;5014954;28;20615;-86
2023/07/20 06:45:23;;;;;;;0.70;0.57;;;30.40;99.90;;;;;;5009032;28;20568;-86
2023/07/20 06:47:53;;;;;;;1.17;0.77;;;30.40;99.70;;;;;;5029173;28;20206;-86
2023/07/20 06:50:24;;;;;;;1.67;0.70;;;30.30;99.10;;;;;;5028179;28;20749;-85
2023/07/20 06:52:54;;;;;;;0.88;0.55;;;30.30;98.40;;;;;;5011462;28;20711;-85
2023/07/20 06:55:26;;;;;;;1.80;0.70;;;30.50;98.20;;;;;;5010496;28;20221;-87
2023/07/20 06:57:53;;;;;;;1.45;1.00;;;30.30;97.30;;;;;;5011430;28;20214;-86
2023/07/20 07:00:25;;;;;;;1.05;0.57;;;30.40;97.20;;;;;;5006682;28;20226;-85
2023/07/20 07:02:53;;;;;;;0.70;0.60;;;30.30;96.50;;;;;;5041959;28;20194;-85
2023/07/20 07:05:21;;;;;;;1.10;0.60;;;30.10;96.40;;;;;;5009727;28;20225;-89
2023/07/20 07:07:49;;;;;;;0.50;0.50;;;30.20;96.10;;;;;;5013618;28;20241;-85
2023/07/20 07:10:25;;;;;;;0.88;0.45;;;30.50;96.10;;;;;;5015566;28;20212;-94
2023/07/20 07:12:53;;;;;;;0.63;0.40;;;30.70;94.70;;;;;;5002059;28;20230;-89
2023/07/20 07:15:20;;;;;;;1.40;0.55;;;30.80;94.80;;;;;;5012724;28;20365;-85
2023/07/20 07:17:49;;;;;;;0.70;0.50;;;30.70;94.50;;;;;;5027442;28;20201;-84
2023/07/20 07:20:16;;;;;;;0.57;0.40;;;30.50;94.00;;;;;;5023410;28;20218;-83
2023/07/20 07:22:49;;;;;;;0.40;0.40;;;30.30;93.60;;;;;;5024404;28;20329;-85
2023/07/20 07:25:21;;;;;;;0.98;0.50;;;30.10;93.80;;;;;;5009699;28;20205;-84
2023/07/20 07:27:51;;;;;;;1.58;0.63;;;30.10;94.10;;;;;;5009531;28;20265;-84
2023/07/20 07:30:18;;;;;;;1.20;0.57;;;30.20;93.90;;;;;;5007888;28;20358;-86
2023/07/20 07:32:48;;;;;;;0.77;0.60;;;30.40;93.70;;;;;;5022811;28;20213;-82
2023/07/20 07:35:16;;;;;;;1.38;0.40;;;30.40;93.40;;;;;;5014800;28;20233;-84
2023/07/20 07:37:43;;;;;;;0.80;0.30;;;30.30;93.40;;;;;;5032641;28;20285;-83
2023/07/20 07:40:29;;;;;;;0.73;0.50;;;30.40;93.00;;;;;;5012393;28;20230;-85
2023/07/20 07:42:59;;;;;;;0.60;0.40;;;30.40;92.70;;;;;;4996981;28;20982;-84
2023/07/20 07:45:26;;;;;;;0.85;0.60;;;30.10;92.80;;;;;;5026053;28;20205;-85
2023/07/20 07:47:53;;;;;;;1.10;0.55;;;29.10;93.50;;;;;;5029750;28;20978;-84
2023/07/20 07:50:21;;;;;;;1.42;0.60;;;28.70;94.00;;;;;;5027323;28;20986;-83
2023/07/20 07:52:48;;;;;;;1.30;0.38;;;29.10;94.10;;;;;;5011835;28;20202;-86
2023/07/20 07:55:18;;;;;;;0.32;0.32;;;29.30;94.20;;;;;;5029171;28;20225;-85
2023/07/20 07:57:47;;;;;;;0.85;0.65;;;29.40;93.10;;;;;;5029003;28;20218;-87
2023/07/20 08:00:18;;;;;;;0.50;0.50;;;29.20;95.20;;;;;;5031064;28;20225;-85
2023/07/20 08:02:48;;;;;;;0.90;0.60;;;28.40;93.50;;;;;;5011097;28;20212;-86
2023/07/20 08:05:17;;;;;;;0.82;0.60;;;28.00;94.50;;;;;;5013074;28;20310;-84
2023/07/20 08:07:46;;;;;;;0.70;0.40;;;27.80;94.50;;;;;;5013546;28;20197;-85
2023/07/20 08:10:14;;;;;;;0.73;0.50;;;27.40;94.80;;;;;;5033654;28;20210;-84
2023/07/20 08:12:41;;;;;;;0.55;0.50;;;26.90;95.00;;;;;;5034702;28;20225;-85
2023/07/20 08:15:12;;;;;;;0.77;0.50;;;27.00;95.10;;;;;;5009837;28;20558;-88
2023/07/20 08:17:48;;;;;;;1.33;0.50;;;26.90;94.90;;;;;;5023641;28;20210;-85
2023/07/20 08:20:18;;;;;;;1.65;0.60;;;26.70;95.60;;;;;;5033941;28;20209;-86
2023/07/20 08:22:48;;;;;;;0.60;0.50;;;26.90;95.90;;;;;;5021765;28;20266;-87
2023/07/20 08:25:16;;;;;;;0.57;0.57;;;27.40;96.10;;;;;;5012302;28;20241;-86
2023/07/20 08:27:46;;;;;;;0.60;0.50;;;27.70;95.80;;;;;;5025612;28;20250;-87
2023/07/20 08:30:13;;;;;;;1.10;0.50;;;28.10;95.20;;;;;;5041430;28;20206;-84
2023/07/20 08:32:40;;;;;;;0.47;0.45;;;28.60;94.70;;;;;;5041840;28;20207;-88
2023/07/20 08:35:10;;;;;;;0.50;0.50;;;29.20;93.90;;;;;;5024658;28;20698;-84
2023/07/20 08:37:37;;;;;;;0.70;0.40;;;29.40;93.30;;;;;;5018057;28;20210;-85
2023/07/20 08:40:04;;;;;;;1.13;0.40;;;29.40;92.10;;;;;;5037857;28;20239;-86
2023/07/20 08:42:32;;;;;;;0.45;0.30;;;29.60;91.50;;;;;;5024705;28;20252;-84
2023/07/20 08:45:00;;;;;;;1.35;0.60;;;29.60;91.10;;;;;;5034771;28;20210;-86
2023/07/20 08:47:31;;;;;;;0.45;0.40;;;29.50;91.20;;;;;;5029826;28;20404;-88
2023/07/20 08:50:05;;;;;;;0.30;0.30;;;29.40;91.30;;;;;;5007661;28;20321;-87
2023/07/20 08:52:34;;;;;;;0.80;0.32;;;29.30;88.90;;;;;;5020363;28;20232;-86
2023/07/20 08:55:03;;;;;;;0.50;0.30;;;29.10;90.30;;;;;;5028116;28;20261;-86
2023/07/20 08:57:36;;;;;;;2.15;0.63;;;29.00;91.10;;;;;;5027039;28;20226;-85
2023/07/20 09:00:16;;;;;;;0.60;0.60;;;29.00;90.80;;;;;;5011519;28;20614;-86
2023/07/20 09:02:46;;;;;;;1.92;0.80;;;28.40;91.30;;;;;;5026946;28;20210;-87
2023/07/20 09:05:16;;;;;;;1.45;0.70;;;27.80;92.20;;;;;;5010637;28;20535;-86
2023/07/20 09:07:43;;;;;;;0.75;0.70;;;27.30;92.80;;;;;;5012108;28;20210;-86
2023/07/20 09:10:13;;;;;;;0.75;0.65;;;26.70;93.00;;;;;;5018609;28;20215;-85
2023/07/20 09:12:43;;;;;;;0.57;0.50;;;26.30;93.50;;;;;;5024404;28;20279;-85
2023/07/20 09:15:12;;;;;;;1.70;0.75;;;26.10;94.30;;;;;;5012054;28;20441;-83
2023/07/20 09:17:39;;;;;;;0.80;0.57;;;26.10;94.50;;;;;;5011731;28;20264;-85
2023/07/20 09:20:14;;;;;;;0.70;0.60;;;26.40;94.80;;;;;;5029196;28;20236;-86
2023/07/20 09:22:45;;;;;;;0.82;0.50;;;26.80;94.60;;;;;;5008314;28;20323;-85
2023/07/20 09:25:14;;;;;;;1.77;0.80;;;27.10;94.10;;;;;;5030175;28;20259;-89
2023/07/20 09:27:45;;;;;;;1.58;0.63;;;27.20;93.30;;;;;;5015511;28;20232;-87
2023/07/20 09:30:48;;;;;;;0.60;0.50;;;27.30;93.10;;;;;;5019818;28;20252;-92
2023/07/20 09:33:32;;;;;;;0.50;0.50;;;27.50;91.80;;;;;;5012418;28;20202;-94
2023/07/20 09:36:49;;;;;;;1.45;0.70;;;27.60;91.80;;;;;;5018449;28;20714;-92
2023/07/20 09:39:20;;;;;;;0.73;0.57;;;28.00;91.80;;;;;;4999050;28;20229;-92
2023/07/20 09:41:52;;;;;;;0.82;0.70;;;28.30;91.40;;;;;;5034284;28;20273;-90
2023/07/20 09:44:43;;;;;;;1.25;0.70;;;28.30;91.30;;;;;;5020676;28;21346;-91
2023/07/20 09:47:22;;;;;;;0.40;0.40;;;28.60;91.20;;;;;;5019730;28;20297;-90
2023/07/20 09:50:03;;;;;;;0.50;0.50;;;28.80;90.10;;;;;;5011616;28;20198;-88
2023/07/20 09:52:35;;;;;;;0.40;0.40;;;28.60;88.60;;;;;;5009657;28;20203;-88
2023/07/20 09:55:06;;;;;;;1.08;0.50;;;28.40;88.00;;;;;;5027320;28;20229;-87
2023/07/20 09:57:35;;;;;;;1.35;0.50;;;28.30;88.70;;;;;;5012372;28;20221;-89
2023/07/20 10:00:20;;;;;;;0.85;0.50;;;28.30;88.30;;;;;;5015702;28;20690;-87
2023/07/20 10:02:57;;;;;;;0.98;0.60;;;28.40;87.60;;;;;;5026991;28;20209;-90
2023/07/20 10:05:36;;;;;;;0.85;0.60;;;28.30;88.30;;;;;;5025735;28;20272;-87
2023/07/20 10:08:11;;;;;;;0.98;0.50;;;28.40;88.30;;;;;;5015838;28;20246;-86
2023/07/20 10:10:45;;;;;;;1.10;0.68;;;28.50;89.10;;;;;;5014668;28;20202;-88
2023/07/20 10:13:38;;;;;;;0.60;0.60;;;28.50;89.90;;;;;;5007544;28;20226;-89
2023/07/20 10:16:13;;;;;;;0.95;0.70;;;28.60;89.90;;;;;;5018144;28;20287;-92
2023/07/20 10:19:03;;;;;;;1.65;0.70;;;28.60;90.40;;;;;;5037584;28;20206;-88
2023/07/20 10:21:32;;;;;;;0.88;0.70;;;28.50;88.90;;;;;;5046158;28;20225;-90
2023/07/20 10:24:05;;;;;;;1.20;0.60;;;28.20;89.80;;;;;;5027090;28;20210;-91
2023/07/20 10:26:32;;;;;;;0.68;0.60;;;27.60;90.30;;;;;;5027351;28;21304;-93
2023/07/20 10:29:04;;;;;;;0.80;0.60;;;27.30;90.40;;;;;;5034997;28;20178;-90
2023/07/20 10:31:33;;;;;;;0.75;0.55;;;27.30;90.10;;;;;;5035024;28;20225;-90
2023/07/20 10:34:02;;;;;;;0.50;0.50;;;27.40;90.20;;;;;;5029148;28;20206;-89
2023/07/20 10:36:30;;;;;;;0.50;0.50;;;27.50;89.70;;;;;;5053141;28;20194;-89
2023/07/20 10:39:44;;;;;;;0.57;0.40;;;27.50;88.80;;;;;;5021525;28;20228;-89
2023/07/20 10:42:12;;;;;;;0.57;0.50;;;27.70;88.20;;;;;;5026308;28;20221;-85
2023/07/20 10:44:46;;;;;;;1.42;0.50;;;27.80;87.70;;;;;;5010570;28;20238;-90
2023/07/20 10:47:17;;;;;;;0.50;0.50;;;28.10;86.70;;;;;;5019018;28;20209;-89
2023/07/20 10:50:03;;;;;;;0.40;0.40;;;28.50;84.80;;;;;;5020295;28;20202;-88
2023/07/20 10:52:38;;;;;;;0.50;0.50;;;28.80;82.50;;;;;;5022502;28;20209;-89
2023/07/20 10:55:32;;;;;;;1.90;0.60;;;28.60;79.40;;;;;;5023571;28;20220;-88
2023/07/20 10:58:14;;;;;;;0.43;0.40;;;28.10;78.70;;;;;;5018874;28;20702;-90
2023/07/20 11:01:06;;;;;;;0.45;0.45;;;28.20;81.40;;;;;;5053628;28;20305;-90
2023/07/20 11:03:40;;;;;;;0.70;0.40;;;28.40;82.40;;;;;;5034268;28;20194;-91
2023/07/20 11:06:25;;;;;;;1.33;0.68;;;28.40;81.80;;;;;;5035248;28;20381;-90
2023/07/20 11:08:59;;;;;;;0.75;0.40;;;28.30;80.30;;;;;;5046179;28;20190;-90
2023/07/20 11:11:35;;;;;;;0.40;0.40;;;28.10;81.10;;;;;;5052257;28;20225;-89
2023/07/20 11:14:25;;;;;;;1.38;0.50;;;28.00;81.20;;;;;;5025143;28;20245;-89
2023/07/20 11:17:15;;;;;;;0.95;0.80;;;27.70;81.30;;;;;;5030376;28;20252;-88
2023/07/20 11:19:55;;;;;;;0.50;0.50;;;27.40;81.30;;;;;;5037186;28;20399;-90
2023/07/20 11:22:28;;;;;;;0.60;0.50;;;27.00;83.90;;;;;;5046687;28;20212;-92
2023/07/20 11:24:58;;;;;;;0.90;0.50;;;26.60;86.60;;;;;;5014997;28;20271;-88
2023/07/20 11:27:32;;;;;;;1.95;0.88;;;26.30;88.30;;;;;;5017272;28;20221;-87
2023/07/20 11:29:59;;;;;;;1.13;0.63;;;26.10;90.00;;;;;;5014310;28;20206;-89
2023/07/20 11:32:36;;;;;;;2.88;0.70;;;26.10;90.80;;;;;;5023942;28;20198;-88
2023/07/20 11:35:04;;;;;;;0.70;0.60;;;26.10;91.10;;;;;;5009394;28;20303;-89
2023/07/20 11:37:32;;;;;;;1.15;0.95;;;26.20;91.50;;;;;;5033943;28;20205;-87
2023/07/20 11:40:10;;;;;;;0.63;0.63;;;26.50;91.70;;;;;;5005008;28;20234;-88
2023/07/20 11:42:37;;;;;;;1.08;0.88;;;26.70;91.40;;;;;;5015642;28;20219;-89
2023/07/20 11:45:11;;;;;;;1.08;0.80;;;26.80;91.10;;;;;;4998184;28;20210;-87
2023/07/20 11:47:45;;;;;;;1.50;0.50;;;26.90;90.80;;;;;;5016659;28;20207;-88
2023/07/20 11:50:13;;;;;;;1.10;0.50;;;27.00;90.20;;;;;;4988871;28;20218;-86
2023/07/20 11:52:41;;;;;;;1.25;0.70;;;26.80;90.40;;;;;;4991752;28;20456;-90
2023/07/20 11:55:12;;;;;;;1.17;0.73;;;26.70;90.50;;;;;;4998967;28;20293;-87
2023/07/20 11:57:41;;;;;;;1.48;0.70;;;26.40;89.70;;;;;;4992266;28;20296;-90
2023/07/20 12:00:12;;;;;;;0.50;0.50;;;26.20;88.90;;;;;;4991689;28;20279;-90
2023/07/20 12:02:46;;;;;;;0.52;0.52;;;26.00;88.80;;;;;;4995648;28;20214;-89
2023/07/20 12:05:18;;;;;;;0.55;0.40;;;25.80;89.20;;;;;;4996243;28;20206;-90
2023/07/20 12:07:52;;;;;;;1.38;0.70;;;25.80;88.50;;;;;;4997344;28;20206;-88
2023/07/20 12:10:26;;;;;;;0.82;0.60;;;25.60;89.20;;;;;;5000974;28;20218;-89
2023/07/20 12:13:03;;;;;;;1.63;0.70;;;25.60;89.10;;;;;;5025299;28;20213;-87
2023/07/20 12:15:32;;;;;;;3.33;0.70;;;25.50;89.50;;;;;;4995794;28;20230;-87
2023/07/20 12:18:11;;;;;;;1.38;0.65;;;25.40;89.70;;;;;;5020851;28;20739;-88
2023/07/20 12:20:43;;;;;;;2.67;0.60;;;25.40;90.30;;;;;;5012996;28;20191;-89
2023/07/20 12:23:12;;;;;;;1.40;0.57;;;25.30;90.50;;;;;;4992738;28;20556;-87
2023/07/20 12:25:46;;;;;;;0.80;0.80;;;25.30;90.60;;;;;;4994634;28;20210;-87
2023/07/20 12:28:19;;;;;;;1.00;0.63;;;25.20;91.00;;;;;;4990913;28;20222;-88
2023/07/20 12:30:51;;;;;;;0.60;0.60;;;25.30;90.60;;;;;;5008382;28;20206;-88
2023/07/20 12:33:20;;;;;;;0.52;0.52;;;25.40;90.70;;;;;;4993878;28;20334;-88
2023/07/20 12:35:51;;;;;;;0.70;0.70;;;25.20;90.70;;;;;;4992525;28;20288;-87
2023/07/20 12:38:19;;;;;;;1.65;0.60;;;25.20;90.90;;;;;;4996511;28;20201;-87
2023/07/20 12:40:46;;;;;;;1.08;0.70;;;25.20;90.60;;;;;;4997638;28;20232;-84
2023/07/20 12:43:16;;;;;;;0.60;0.60;;;25.20;91.00;;;;;;5022469;28;20962;-86
2023/07/20 12:45:44;;;;;;;0.47;0.40;;;25.40;90.90;;;;;;5024435;28;20205;-85
2023/07/20 12:48:12;;;;;;;0.90;0.70;;;25.30;90.50;;;;;;5006221;28;20234;-89
2023/07/20 12:50:43;;;;;;;1.38;0.73;;;25.40;91.00;;;;;;5016608;28;20212;-89
2023/07/20 12:53:12;;;;;;;2.45;1.08;;;25.40;92.30;;;;;;5017816;28;20729;-88
2023/07/20 12:55:39;;;;;;;8.52;1.95;;;25.40;94.20;;;;;;5003848;28;20250;-86
2023/07/20 12:58:11;;;;;;;8.82;2.05;;;25.50;94.70;;;;;;5004317;28;20223;-87
2023/07/20 13:00:39;;;;;;;2.22;1.10;;;25.60;95.30;;;;;;5029892;28;20224;-87
2023/07/20 13:03:08;;;;;;;2.47;1.10;;;25.60;95.00;;;;;;5029025;28;20197;-85
2023/07/20 13:05:36;;;;;;;1.42;1.00;;;25.40;94.70;;;;;;5029511;28;20280;-86
2023/07/20 13:08:09;;;;;;;1.10;1.00;;;25.40;94.50;;;;;;5018858;28;20220;-88